Time;durP1;ratioP1;P1;durP2;ratioP2;P2;SDS_P1;SDS_P2;PMS_P1;PMS_P2;Temp;Humidity;BMP_temperature;BMP_pressure;BME280_temperature;BME280_humidity;BME280_pressure;Samples;Min_cycle;Max_cycle;Signal;HPM_P1;HPM_P2
2024/01/07 00:00:24;;;;;;;53.50;28.73;;;0.90;99.90;;;;;;5021469;28;20021;-81
2024/01/07 00:02:50;;;;;;;49.38;28.33;;;1.00;99.90;;;;;;5019768;28;20083;-80
2024/01/07 00:05:15;;;;;;;53.80;29.55;;;0.90;99.90;;;;;;5023589;28;20358;-80
2024/01/07 00:07:41;;;;;;;50.22;27.65;;;1.00;99.90;;;;;;5023688;28;20029;-81
2024/01/07 00:10:07;;;;;;;56.70;30.38;;;1.00;99.90;;;;;;5024268;28;20029;-81
2024/01/07 00:12:32;;;;;;;47.90;27.45;;;1.10;99.90;;;;;;5025215;28;20017;-82
2024/01/07 00:14:58;;;;;;;43.88;25.80;;;1.10;99.90;;;;;;5017988;28;20053;-80
2024/01/07 00:17:23;;;;;;;47.38;26.15;;;1.10;99.90;;;;;;5021734;28;20470;-82
2024/01/07 00:19:49;;;;;;;47.60;25.58;;;0.90;99.90;;;;;;5023285;28;20017;-80
2024/01/07 00:22:15;;;;;;;45.10;26.25;;;0.90;99.90;;;;;;5020916;28;20650;-81
2024/01/07 00:24:40;;;;;;;43.88;24.60;;;0.90;99.90;;;;;;5020466;28;20025;-81
2024/01/07 00:27:08;;;;;;;45.40;22.58;;;0.90;99.90;;;;;;5011213;28;20060;-80
2024/01/07 00:29:35;;;;;;;49.88;26.42;;;0.90;99.90;;;;;;5022386;28;20160;-80
2024/01/07 00:32:01;;;;;;;45.47;22.65;;;0.90;99.90;;;;;;5028385;28;20036;-80
2024/01/07 00:34:27;;;;;;;41.72;23.08;;;0.90;99.90;;;;;;5023984;28;20017;-82
2024/01/07 00:36:52;;;;;;;40.25;23.23;;;0.80;99.90;;;;;;5027169;28;20029;-83
2024/01/07 00:39:17;;;;;;;41.17;22.05;;;0.80;99.90;;;;;;5016713;28;20079;-81
2024/01/07 00:41:43;;;;;;;43.85;22.83;;;0.70;99.90;;;;;;5022209;28;20075;-80
2024/01/07 00:44:09;;;;;;;44.55;23.58;;;0.70;99.90;;;;;;5020590;28;20405;-83
2024/01/07 00:46:34;;;;;;;41.10;21.52;;;0.70;99.90;;;;;;5024272;28;20033;-81
2024/01/07 00:49:00;;;;;;;50.35;24.02;;;0.70;99.90;;;;;;5024632;28;20021;-80
2024/01/07 00:51:25;;;;;;;44.30;23.77;;;0.70;99.90;;;;;;5017087;28;20017;-80
2024/01/07 00:53:51;;;;;;;43.35;23.70;;;0.70;99.90;;;;;;5021703;28;20064;-81
2024/01/07 00:56:19;;;;;;;43.92;25.40;;;0.70;99.90;;;;;;5031389;28;20473;-84
2024/01/07 00:58:46;;;;;;;50.50;25.40;;;0.60;99.90;;;;;;5018677;28;20026;-82
2024/01/07 01:01:12;;;;;;;48.70;25.45;;;0.70;99.90;;;;;;5019382;28;20075;-81
2024/01/07 01:03:37;;;;;;;47.85;25.58;;;0.70;99.90;;;;;;5023611;28;20387;-82
2024/01/07 01:06:04;;;;;;;51.08;27.10;;;0.70;99.90;;;;;;5022891;28;20050;-81
2024/01/07 01:08:29;;;;;;;47.78;26.63;;;0.70;99.90;;;;;;5022679;28;20228;-81
2024/01/07 01:10:55;;;;;;;47.75;25.50;;;0.70;99.90;;;;;;5022271;28;20135;-80
2024/01/07 01:13:20;;;;;;;62.03;31.10;;;0.70;99.90;;;;;;5020167;28;20033;-80
2024/01/07 01:15:49;;;;;;;52.15;25.70;;;0.70;99.90;;;;;;5018678;28;20623;-85
2024/01/07 01:18:14;;;;;;;49.60;25.05;;;0.70;99.90;;;;;;5020259;28;20132;-81
2024/01/07 01:20:40;;;;;;;57.67;23.73;;;0.70;99.90;;;;;;5023278;28;20025;-80
2024/01/07 01:23:05;;;;;;;43.42;22.88;;;0.60;99.90;;;;;;5023810;28;20037;-81
2024/01/07 01:25:31;;;;;;;46.67;22.88;;;0.60;99.90;;;;;;5025333;28;20075;-81
2024/01/07 01:27:57;;;;;;;50.25;24.15;;;0.60;99.90;;;;;;5029340;28;20076;-80
2024/01/07 01:30:22;;;;;;;46.15;23.00;;;0.60;99.90;;;;;;5019025;28;20055;-82
2024/01/07 01:32:48;;;;;;;41.72;22.35;;;0.50;99.90;;;;;;5020400;28;20540;-80
2024/01/07 01:35:17;;;;;;;42.38;22.58;;;0.60;99.90;;;;;;5022280;28;20028;-85
2024/01/07 01:37:42;;;;;;;40.65;22.40;;;0.50;99.90;;;;;;5022328;28;20029;-81
2024/01/07 01:40:08;;;;;;;45.03;23.80;;;0.50;99.90;;;;;;5022821;28;20025;-81
2024/01/07 01:42:34;;;;;;;41.53;22.42;;;0.50;99.90;;;;;;5028860;28;20021;-80
2024/01/07 01:45:01;;;;;;;41.85;22.02;;;0.50;99.90;;;;;;5026178;28;20021;-81
2024/01/07 01:47:28;;;;;;;45.83;24.73;;;0.40;99.90;;;;;;5024116;28;20026;-80
2024/01/07 01:49:54;;;;;;;46.17;23.52;;;0.40;99.90;;;;;;5017446;28;20052;-79
2024/01/07 01:52:20;;;;;;;40.03;22.55;;;0.40;99.90;;;;;;5026695;28;20500;-81
2024/01/07 01:54:46;;;;;;;45.58;23.52;;;0.30;99.90;;;;;;5029799;28;20036;-80
2024/01/07 01:57:20;;;;;;;36.05;20.42;;;0.30;99.90;;;;;;5022945;28;20050;-80
2024/01/07 01:59:48;;;;;;;49.63;25.35;;;0.30;99.90;;;;;;5022568;28;20022;-84
2024/01/07 02:02:14;;;;;;;56.42;23.88;;;0.30;99.90;;;;;;5021562;28;20056;-80
2024/01/07 02:04:40;;;;;;;46.08;23.80;;;0.30;99.90;;;;;;5021548;28;20073;-80
2024/01/07 02:07:06;;;;;;;40.08;23.00;;;0.30;99.90;;;;;;5022717;28;20028;-80
2024/01/07 02:09:31;;;;;;;49.05;24.05;;;0.30;99.90;;;;;;5022838;28;20034;-81
2024/01/07 02:12:05;;;;;;;43.53;21.73;;;0.30;99.90;;;;;;5020041;28;20486;-79
2024/01/07 02:14:30;;;;;;;42.85;22.70;;;0.30;99.90;;;;;;5011419;28;20029;-80
2024/01/07 02:16:56;;;;;;;57.15;26.05;;;0.30;99.90;;;;;;5024966;28;20555;-80
2024/01/07 02:19:23;;;;;;;50.67;26.98;;;0.30;99.90;;;;;;5022226;28;20060;-81
2024/01/07 02:21:50;;;;;;;55.22;27.35;;;0.30;99.90;;;;;;5023928;28;20045;-81
2024/01/07 02:24:19;;;;;;;44.05;23.67;;;0.30;99.90;;;;;;5020633;28;20030;-84
2024/01/07 02:26:44;;;;;;;42.30;24.80;;;0.30;99.90;;;;;;5025946;28;20044;-80
2024/01/07 02:29:10;;;;;;;53.10;25.42;;;0.30;99.90;;;;;;5022399;28;20029;-80
2024/01/07 02:31:35;;;;;;;46.60;26.10;;;0.20;99.90;;;;;;5022714;28;20032;-81
2024/01/07 02:34:01;;;;;;;48.08;26.63;;;0.20;99.90;;;;;;5027326;28;20393;-80
2024/01/07 02:36:26;;;;;;;47.97;25.38;;;0.20;99.90;;;;;;5019554;28;20128;-80
2024/01/07 02:38:52;;;;;;;49.60;25.17;;;0.20;99.90;;;;;;5018327;28;20025;-81
2024/01/07 02:41:18;;;;;;;37.92;21.05;;;0.30;99.90;;;;;;5025765;28;20014;-80
2024/01/07 02:43:43;;;;;;;39.63;23.17;;;0.20;99.90;;;;;;5017266;28;20022;-80
2024/01/07 02:46:09;;;;;;;38.80;20.50;;;0.20;99.90;;;;;;5019553;28;20030;-80
2024/01/07 02:48:35;;;;;;;37.67;20.63;;;0.20;99.90;;;;;;5018192;28;20136;-80
2024/01/07 02:51:03;;;;;;;41.35;21.83;;;0.30;99.90;;;;;;5020812;28;20212;-80
2024/01/07 02:53:28;;;;;;;35.17;21.00;;;0.20;99.90;;;;;;5025342;28;20205;-80
2024/01/07 02:55:54;;;;;;;42.22;21.00;;;0.20;99.90;;;;;;5022411;28;20132;-81
2024/01/07 02:58:20;;;;;;;33.05;18.67;;;0.20;99.90;;;;;;5024646;28;20032;-82
2024/01/07 03:00:45;;;;;;;33.80;19.55;;;0.20;99.90;;;;;;5016570;28;20463;-81
2024/01/07 03:03:12;;;;;;;36.08;16.95;;;0.20;99.90;;;;;;5019196;28;20040;-82
2024/01/07 03:05:38;;;;;;;30.45;15.88;;;0.10;99.90;;;;;;5027298;28;20148;-80
2024/01/07 03:08:04;;;;;;;29.63;16.38;;;0.00;99.90;;;;;;5023638;28;20517;-80
2024/01/07 03:10:29;;;;;;;34.90;18.13;;;-0.10;99.90;;;;;;5020693;28;20301;-79
2024/01/07 03:12:55;;;;;;;36.17;17.60;;;-0.20;99.90;;;;;;5025506;28;20391;-80
2024/01/07 03:15:21;;;;;;;37.13;19.92;;;-0.20;99.90;;;;;;5022369;28;20010;-79
2024/01/07 03:17:46;;;;;;;42.65;22.77;;;-0.20;99.90;;;;;;5022233;28;20129;-80
2024/01/07 03:20:12;;;;;;;39.85;19.88;;;-0.10;99.90;;;;;;5015441;28;20029;-81
2024/01/07 03:22:37;;;;;;;30.33;17.25;;;-0.10;99.90;;;;;;5022402;28;20509;-81
2024/01/07 03:25:03;;;;;;;29.30;17.65;;;-0.10;99.90;;;;;;5024872;28;20024;-79
2024/01/07 03:27:29;;;;;;;35.53;18.17;;;-0.20;99.90;;;;;;5022356;28;20063;-79
2024/01/07 03:29:55;;;;;;;27.77;17.00;;;-0.20;99.90;;;;;;5019932;28;20017;-79
2024/01/07 03:32:20;;;;;;;30.30;16.48;;;-0.20;99.90;;;;;;5024505;28;20215;-79
2024/01/07 03:34:46;;;;;;;33.67;19.13;;;-0.10;99.90;;;;;;5020635;28;20402;-79
2024/01/07 03:37:11;;;;;;;31.48;18.55;;;-0.10;99.90;;;;;;5024247;28;20091;-80
2024/01/07 03:39:37;;;;;;;32.13;19.63;;;0.00;99.90;;;;;;5021136;28;20017;-80
2024/01/07 03:42:03;;;;;;;28.45;17.48;;;0.00;99.90;;;;;;5026993;28;20021;-80
2024/01/07 03:44:28;;;;;;;28.65;17.67;;;0.00;99.90;;;;;;5023749;28;20029;-79
2024/01/07 03:46:54;;;;;;;25.90;16.10;;;0.00;99.90;;;;;;5021940;28;21321;-80
2024/01/07 03:49:20;;;;;;;26.23;14.50;;;0.00;99.90;;;;;;5024507;28;20052;-79
2024/01/07 03:51:45;;;;;;;23.73;13.65;;;0.00;99.90;;;;;;5026153;28;20021;-79
2024/01/07 03:54:11;;;;;;;25.33;13.88;;;0.00;99.90;;;;;;5026882;28;20030;-79
2024/01/07 03:56:36;;;;;;;23.75;14.30;;;0.00;99.90;;;;;;5021883;28;20810;-80
2024/01/07 03:59:02;;;;;;;26.10;13.05;;;0.00;99.90;;;;;;5018715;28;20474;-81
2024/01/07 04:01:27;;;;;;;22.10;11.45;;;-0.10;99.90;;;;;;5021477;28;20021;-80
2024/01/07 04:03:53;;;;;;;21.55;12.73;;;-0.10;99.90;;;;;;5031636;28;20344;-80
2024/01/07 04:06:19;;;;;;;19.38;11.35;;;-0.10;99.90;;;;;;5024519;28;20159;-80
2024/01/07 04:08:44;;;;;;;20.38;11.75;;;-0.10;99.90;;;;;;5026210;28;20351;-79
2024/01/07 04:11:11;;;;;;;26.05;11.85;;;-0.10;99.90;;;;;;5024733;28;20444;-82
2024/01/07 04:13:36;;;;;;;23.90;11.75;;;-0.10;99.90;;;;;;5029694;28;20067;-79
2024/01/07 04:16:02;;;;;;;23.90;12.32;;;-0.10;99.90;;;;;;5021360;28;20065;-80
2024/01/07 04:18:28;;;;;;;23.58;12.70;;;-0.10;99.90;;;;;;5024703;28;20025;-80
2024/01/07 04:20:53;;;;;;;28.42;11.82;;;-0.20;99.90;;;;;;5022971;28;20025;-80
2024/01/07 04:23:19;;;;;;;23.05;10.38;;;-0.20;99.90;;;;;;5024411;28;20420;-79
2024/01/07 04:25:45;;;;;;;23.05;10.82;;;-0.20;99.90;;;;;;5024947;28;20021;-80
2024/01/07 04:28:11;;;;;;;19.52;9.60;;;-0.20;99.90;;;;;;5021983;28;20079;-80
2024/01/07 04:30:36;;;;;;;19.42;9.52;;;-0.20;99.90;;;;;;5023094;28;20037;-80
2024/01/07 04:33:02;;;;;;;18.83;9.55;;;-0.20;99.90;;;;;;5020045;28;20156;-80
2024/01/07 04:35:28;;;;;;;22.77;9.63;;;-0.30;99.90;;;;;;5022732;28;20493;-80
2024/01/07 04:37:53;;;;;;;20.23;9.82;;;-0.30;99.90;;;;;;5019619;28;20040;-81
2024/01/07 04:40:19;;;;;;;19.05;9.38;;;-0.30;99.90;;;;;;5022764;28;20051;-79
2024/01/07 04:42:45;;;;;;;20.05;9.50;;;-0.30;99.90;;;;;;5022249;28;20021;-79
2024/01/07 04:45:13;;;;;;;16.98;9.77;;;-0.30;99.90;;;;;;5021484;28;20327;-82
2024/01/07 04:47:39;;;;;;;20.25;9.68;;;-0.30;99.90;;;;;;5020367;28;21539;-80
2024/01/07 04:50:05;;;;;;;19.98;9.38;;;-0.40;99.90;;;;;;5022683;28;20503;-80
2024/01/07 04:52:30;;;;;;;21.15;9.57;;;-0.40;99.90;;;;;;5019191;28;20026;-80
2024/01/07 04:54:56;;;;;;;16.50;8.27;;;-0.40;99.90;;;;;;5018686;28;20028;-79
2024/01/07 04:57:22;;;;;;;15.20;8.68;;;-0.40;99.90;;;;;;5023276;28;20377;-82
2024/01/07 04:59:49;;;;;;;18.88;9.30;;;-0.40;99.90;;;;;;5022622;28;20104;-79
2024/01/07 05:02:14;;;;;;;23.45;8.38;;;-0.50;99.90;;;;;;5022918;28;20026;-79
2024/01/07 05:04:40;;;;;;;16.25;8.43;;;-0.50;99.90;;;;;;5023733;28;20125;-79
2024/01/07 05:07:06;;;;;;;16.02;9.18;;;-0.50;99.90;;;;;;5023414;28;20287;-80
2024/01/07 05:09:34;;;;;;;22.90;8.38;;;-0.60;99.90;;;;;;5023779;28;20104;-81
2024/01/07 05:12:00;;;;;;;21.27;9.45;;;-0.60;99.90;;;;;;5029709;28;20125;-79
2024/01/07 05:14:26;;;;;;;16.10;8.38;;;-0.60;99.90;;;;;;5027408;28;20055;-79
2024/01/07 05:16:54;;;;;;;17.27;8.80;;;-0.50;99.90;;;;;;5029094;28;20078;-83
2024/01/07 05:19:19;;;;;;;19.33;8.43;;;-0.60;99.90;;;;;;5022774;28;20030;-80
2024/01/07 05:21:45;;;;;;;18.05;8.45;;;-0.60;99.90;;;;;;5027265;28;20347;-79
2024/01/07 05:24:13;;;;;;;18.27;9.18;;;-0.60;99.90;;;;;;5016711;28;20009;-84
2024/01/07 05:26:43;;;;;;;17.63;8.10;;;-0.60;99.90;;;;;;5020152;28;20385;-81
2024/01/07 05:29:09;;;;;;;16.33;7.75;;;-0.60;99.90;;;;;;5017677;28;20049;-80
2024/01/07 05:31:34;;;;;;;18.38;8.75;;;-0.60;99.90;;;;;;5020024;28;20154;-79
2024/01/07 05:34:00;;;;;;;18.73;8.75;;;-0.60;99.90;;;;;;5014270;28;20026;-80
2024/01/07 05:36:25;;;;;;;16.83;9.20;;;-0.60;99.90;;;;;;5024226;28;20417;-80
2024/01/07 05:38:51;;;;;;;12.98;7.40;;;-0.60;99.90;;;;;;5029447;28;20021;-80
2024/01/07 05:41:17;;;;;;;15.00;7.30;;;-0.60;99.90;;;;;;5017970;28;20062;-85
2024/01/07 05:43:42;;;;;;;16.00;8.60;;;-0.60;99.90;;;;;;5017275;28;20406;-79
2024/01/07 05:46:08;;;;;;;10.40;6.43;;;-0.50;99.90;;;;;;5018321;28;20057;-81
2024/01/07 05:48:48;;;;;;;17.85;8.15;;;-0.60;99.90;;;;;;5019009;28;20017;-80
2024/01/07 05:51:15;;;;;;;16.42;6.75;;;-0.60;99.90;;;;;;5016719;28;20026;-80
2024/01/07 05:53:41;;;;;;;12.32;6.45;;;-0.60;99.90;;;;;;5019534;28;20029;-80
2024/01/07 05:56:07;;;;;;;13.75;7.00;;;-0.60;99.90;;;;;;5021956;28;20036;-81
2024/01/07 05:58:33;;;;;;;13.65;6.53;;;-0.50;99.90;;;;;;5014162;28;20018;-80
2024/01/07 06:01:00;;;;;;;13.00;6.18;;;-0.60;99.90;;;;;;5020862;28;20336;-80
2024/01/07 06:03:26;;;;;;;13.43;6.40;;;-0.60;99.90;;;;;;5025323;28;20033;-83
2024/01/07 06:05:51;;;;;;;18.15;7.05;;;-0.60;99.90;;;;;;5020759;28;20030;-80
2024/01/07 06:08:17;;;;;;;17.27;6.55;;;-0.60;99.90;;;;;;5025485;28;20025;-79
2024/01/07 06:10:43;;;;;;;11.32;5.20;;;-0.60;99.90;;;;;;5026962;28;20028;-80
2024/01/07 06:13:10;;;;;;;7.72;4.93;;;-0.60;99.90;;;;;;5019332;28;20044;-81
2024/01/07 06:15:36;;;;;;;10.18;5.57;;;-0.70;99.90;;;;;;5025161;28;20307;-79
2024/01/07 06:18:02;;;;;;;8.20;5.50;;;-0.70;99.90;;;;;;5018639;28;20025;-80
2024/01/07 06:20:28;;;;;;;12.02;5.47;;;-0.70;99.90;;;;;;5027848;28;20025;-80
2024/01/07 06:22:53;;;;;;;13.50;4.85;;;-0.70;99.90;;;;;;5028736;28;20033;-83
2024/01/07 06:25:19;;;;;;;8.30;5.40;;;-0.70;99.90;;;;;;5025332;28;20025;-80
2024/01/07 06:27:44;;;;;;;14.77;5.93;;;-0.70;99.90;;;;;;5026574;28;20132;-80
2024/01/07 06:30:10;;;;;;;11.77;5.40;;;-0.70;99.90;;;;;;5026239;28;20158;-79
2024/01/07 06:32:36;;;;;;;7.10;5.25;;;-0.70;99.90;;;;;;5022523;28;20021;-80
2024/01/07 06:35:05;;;;;;;13.32;6.25;;;-0.70;99.90;;;;;;5023833;28;20056;-79
2024/01/07 06:37:30;;;;;;;12.40;6.65;;;-0.70;99.90;;;;;;5022132;28;20064;-79
2024/01/07 06:39:58;;;;;;;11.93;5.85;;;-0.70;99.90;;;;;;5031945;28;20355;-79
2024/01/07 06:42:24;;;;;;;7.22;4.97;;;-0.70;99.90;;;;;;5025131;28;20017;-79
2024/01/07 06:44:49;;;;;;;12.52;6.35;;;-0.70;99.90;;;;;;5031966;28;20017;-80
2024/01/07 06:47:15;;;;;;;8.60;5.65;;;-0.80;99.90;;;;;;5028345;28;20017;-79
2024/01/07 06:49:41;;;;;;;11.32;5.60;;;-0.80;99.90;;;;;;5023679;28;20462;-81
2024/01/07 06:52:07;;;;;;;14.25;6.47;;;-0.80;99.90;;;;;;5030254;28;20052;-84
2024/01/07 06:54:33;;;;;;;12.30;6.28;;;-0.80;99.90;;;;;;5032082;28;20079;-81
2024/01/07 06:56:58;;;;;;;11.50;6.18;;;-0.80;99.90;;;;;;5029109;28;20028;-79
2024/01/07 06:59:24;;;;;;;11.88;6.15;;;-0.90;99.90;;;;;;5022881;28;20466;-82
2024/01/07 07:01:49;;;;;;;8.45;5.82;;;-0.90;99.90;;;;;;5020400;28;20025;-80
2024/01/07 07:04:16;;;;;;;7.40;4.68;;;-0.90;99.90;;;;;;5023032;28;20049;-85
2024/01/07 07:06:41;;;;;;;11.48;5.78;;;-0.90;99.90;;;;;;5019698;28;20082;-79
2024/01/07 07:09:07;;;;;;;17.30;5.70;;;-0.90;99.90;;;;;;5020453;28;20120;-81
2024/01/07 07:11:36;;;;;;;11.32;6.63;;;-0.90;99.90;;;;;;5023569;28;20116;-84
2024/01/07 07:14:01;;;;;;;9.48;5.40;;;-0.90;99.90;;;;;;5022578;28;20021;-79
2024/01/07 07:16:29;;;;;;;10.02;5.40;;;-0.90;99.90;;;;;;5019587;28;20048;-85
2024/01/07 07:18:56;;;;;;;10.60;6.20;;;-1.00;99.90;;;;;;5034128;28;20044;-79
2024/01/07 07:21:22;;;;;;;8.85;5.50;;;-1.00;99.90;;;;;;5021892;28;20477;-80
2024/01/07 07:23:48;;;;;;;7.72;5.00;;;-1.00;99.90;;;;;;5022976;28;20406;-79
2024/01/07 07:26:14;;;;;;;9.85;5.40;;;-1.00;99.90;;;;;;5020005;28;20041;-79
2024/01/07 07:28:39;;;;;;;9.63;5.45;;;-1.10;99.90;;;;;;5025336;28;20034;-80
2024/01/07 07:31:05;;;;;;;12.30;6.07;;;-1.10;99.90;;;;;;5025299;28;20480;-79
2024/01/07 07:33:30;;;;;;;7.05;4.65;;;-1.10;99.90;;;;;;5024530;28;20523;-79
2024/01/07 07:35:56;;;;;;;16.35;5.38;;;-1.10;99.90;;;;;;5016003;28;20292;-80
2024/01/07 07:38:22;;;;;;;7.60;5.28;;;-1.20;99.90;;;;;;5016904;28;20673;-82
2024/01/07 07:40:52;;;;;;;8.60;4.78;;;-1.20;99.90;;;;;;5023895;28;20401;-79
2024/01/07 07:43:19;;;;;;;9.15;5.38;;;-1.30;99.90;;;;;;5023345;28;20108;-80
2024/01/07 07:45:45;;;;;;;7.88;5.82;;;-1.30;99.90;;;;;;5023767;28;20426;-79
2024/01/07 07:48:10;;;;;;;9.32;6.13;;;-1.30;99.90;;;;;;5022044;28;20018;-84
2024/01/07 07:50:36;;;;;;;9.52;6.28;;;-1.30;99.90;;;;;;5024481;28;20029;-82
2024/01/07 07:53:02;;;;;;;9.70;5.63;;;-1.30;99.90;;;;;;5028805;28;20476;-79
2024/01/07 07:55:28;;;;;;;9.80;5.72;;;-1.30;99.90;;;;;;5024493;28;20112;-79
2024/01/07 07:57:54;;;;;;;10.50;5.97;;;-1.30;99.90;;;;;;5022094;28;20029;-82
2024/01/07 08:00:19;;;;;;;10.05;5.55;;;-1.20;99.90;;;;;;5022030;28;20022;-79
2024/01/07 08:02:45;;;;;;;9.40;5.35;;;-1.30;99.90;;;;;;5022515;28;20025;-80
2024/01/07 08:05:11;;;;;;;7.35;5.18;;;-1.30;99.90;;;;;;5033525;28;20049;-80
2024/01/07 08:07:39;;;;;;;12.98;6.72;;;-1.30;99.90;;;;;;5023414;28;20021;-82
2024/01/07 08:10:06;;;;;;;17.15;7.93;;;-1.40;99.90;;;;;;5018135;28;20017;-80
2024/01/07 08:12:32;;;;;;;15.73;7.53;;;-1.30;99.90;;;;;;5019781;28;20025;-79
2024/01/07 08:14:57;;;;;;;18.65;8.43;;;-1.30;99.90;;;;;;5024030;28;20051;-83
2024/01/07 08:17:23;;;;;;;15.45;6.88;;;-1.30;99.90;;;;;;5026333;28;20400;-80
2024/01/07 08:19:48;;;;;;;14.82;6.50;;;-1.30;99.90;;;;;;5020495;28;20026;-79
2024/01/07 08:22:14;;;;;;;9.48;5.20;;;-1.30;99.90;;;;;;5022232;28;20116;-79
2024/01/07 08:24:40;;;;;;;11.02;5.68;;;-1.30;99.90;;;;;;5023921;28;20036;-79
2024/01/07 08:27:05;;;;;;;9.05;5.38;;;-1.30;99.90;;;;;;5021338;28;20052;-80
2024/01/07 08:29:31;;;;;;;6.10;4.32;;;-1.30;99.90;;;;;;5014916;28;20116;-80
2024/01/07 08:31:56;;;;;;;13.02;6.35;;;-1.30;99.90;;;;;;5022643;28;20021;-87
2024/01/07 08:34:22;;;;;;;17.30;6.88;;;-1.30;99.90;;;;;;5020691;28;20029;-79
2024/01/07 08:36:48;;;;;;;11.48;5.97;;;-1.30;99.90;;;;;;5025176;28;20041;-79
2024/01/07 08:39:15;;;;;;;11.23;5.50;;;-1.30;99.90;;;;;;5027570;28;20013;-80
2024/01/07 08:41:40;;;;;;;8.30;4.57;;;-1.30;99.90;;;;;;5020375;28;20031;-80
2024/01/07 08:44:08;;;;;;;9.75;4.93;;;-1.30;99.90;;;;;;5021892;28;20080;-81
2024/01/07 08:46:34;;;;;;;16.05;6.20;;;-1.40;99.90;;;;;;5021395;28;20100;-79
2024/01/07 08:48:59;;;;;;;11.60;5.05;;;-1.40;99.90;;;;;;5028578;28;20049;-78
2024/01/07 08:51:25;;;;;;;4.78;3.60;;;-1.40;99.90;;;;;;5028372;28;20110;-80
2024/01/07 08:53:51;;;;;;;6.88;3.97;;;-1.40;99.90;;;;;;5028606;28;20041;-84
2024/01/07 08:56:17;;;;;;;7.45;4.18;;;-1.40;99.90;;;;;;5016094;28;20037;-83
2024/01/07 08:58:43;;;;;;;5.50;3.85;;;-1.40;99.90;;;;;;5019233;28;20132;-80
2024/01/07 09:01:09;;;;;;;6.22;3.75;;;-1.50;99.90;;;;;;5023866;28;20129;-80
2024/01/07 09:03:34;;;;;;;11.55;5.55;;;-1.50;99.90;;;;;;5027104;28;20025;-79
2024/01/07 09:06:00;;;;;;;11.50;5.18;;;-1.40;99.90;;;;;;5025426;28;20049;-81
2024/01/07 09:08:26;;;;;;;7.22;3.97;;;-1.40;99.90;;;;;;5010773;28;20053;-80
2024/01/07 09:10:54;;;;;;;7.35;4.20;;;-1.50;99.90;;;;;;5017211;28;21296;-84
2024/01/07 09:13:20;;;;;;;16.83;8.48;;;-1.40;99.90;;;;;;5021032;28;20025;-79
2024/01/07 09:15:46;;;;;;;10.35;6.32;;;-1.40;99.90;;;;;;5022432;28;22180;-80
2024/01/07 09:18:11;;;;;;;9.63;5.38;;;-1.40;99.90;;;;;;5020086;28;20438;-80
2024/01/07 09:20:37;;;;;;;9.20;6.00;;;-1.40;99.90;;;;;;5010624;28;20064;-81
2024/01/07 09:23:05;;;;;;;13.13;6.03;;;-1.40;99.90;;;;;;5022847;28;20114;-83
2024/01/07 09:25:31;;;;;;;4.43;3.60;;;-1.40;99.90;;;;;;5021543;28;20033;-80
2024/01/07 09:27:56;;;;;;;9.57;4.22;;;-1.40;99.90;;;;;;5021409;28;20040;-83
2024/01/07 09:30:22;;;;;;;8.60;4.93;;;-1.40;99.90;;;;;;5022555;28;20037;-80
2024/01/07 09:32:48;;;;;;;7.97;3.90;;;-1.50;99.90;;;;;;5022440;28;20424;-82
2024/01/07 09:35:13;;;;;;;8.80;4.57;;;-1.50;99.90;;;;;;5018344;28;20063;-80
2024/01/07 09:37:39;;;;;;;5.47;4.28;;;-1.60;99.90;;;;;;5018382;28;20454;-84
2024/01/07 09:40:06;;;;;;;8.38;5.50;;;-1.40;99.90;;;;;;5019352;28;20021;-79
2024/01/07 09:42:31;;;;;;;5.30;4.40;;;-1.40;99.90;;;;;;5022542;28;20054;-80
2024/01/07 09:45:03;;;;;;;8.43;5.53;;;-1.40;99.90;;;;;;5023435;28;20029;-81
2024/01/07 09:47:29;;;;;;;10.40;7.03;;;-1.30;99.90;;;;;;5024148;28;20140;-80
2024/01/07 09:49:55;;;;;;;9.00;5.32;;;-1.30;99.90;;;;;;5024301;28;20029;-80
2024/01/07 09:52:20;;;;;;;7.75;4.68;;;-1.30;99.90;;;;;;5028981;28;20025;-80
2024/01/07 09:54:51;;;;;;;4.75;4.28;;;-1.30;99.90;;;;;;5018881;28;20033;-80
2024/01/07 09:57:17;;;;;;;6.20;4.45;;;-1.30;99.90;;;;;;5018686;28;20033;-81
2024/01/07 09:59:43;;;;;;;9.95;4.22;;;-1.30;99.90;;;;;;5028394;28;20036;-80
2024/01/07 10:02:09;;;;;;;5.57;4.35;;;-1.30;99.90;;;;;;5029403;28;20021;-81
2024/01/07 10:04:35;;;;;;;6.00;4.53;;;-1.30;99.90;;;;;;5023415;28;20054;-80
2024/01/07 10:07:01;;;;;;;5.97;4.38;;;-1.40;99.90;;;;;;5021342;28;20059;-79
2024/01/07 10:09:33;;;;;;;8.73;4.60;;;-1.30;99.90;;;;;;5020827;28;20018;-80
2024/01/07 10:11:58;;;;;;;10.15;4.47;;;-1.30;99.90;;;;;;5022935;28;20053;-80
2024/01/07 10:14:25;;;;;;;12.20;4.97;;;-1.20;99.90;;;;;;5026488;28;20111;-80
2024/01/07 10:16:53;;;;;;;7.55;5.47;;;-1.20;99.90;;;;;;5032749;28;20043;-83
2024/01/07 10:19:27;;;;;;;7.82;5.15;;;-1.10;99.90;;;;;;5024138;28;20026;-84
2024/01/07 10:22:03;;;;;;;6.78;4.70;;;-1.10;99.90;;;;;;5028229;28;20048;-82
2024/01/07 10:24:40;;;;;;;6.50;4.68;;;-1.10;99.90;;;;;;5024825;28;20026;-79
2024/01/07 10:27:06;;;;;;;6.82;4.18;;;-1.10;99.90;;;;;;5027238;28;20068;-79
2024/01/07 10:29:32;;;;;;;13.10;5.45;;;-1.10;99.90;;;;;;5021291;28;20033;-81
2024/01/07 10:32:04;;;;;;;6.72;4.53;;;-1.10;99.90;;;;;;5044301;28;20041;-83
2024/01/07 10:34:32;;;;;;;6.28;4.38;;;-1.10;99.90;;;;;;5022209;28;20237;-79
2024/01/07 10:37:00;;;;;;;11.95;4.88;;;-1.20;99.90;;;;;;5021485;28;20041;-80
2024/01/07 10:39:25;;;;;;;6.30;4.68;;;-1.10;99.90;;;;;;5031364;28;20029;-80
2024/01/07 10:41:57;;;;;;;7.82;4.32;;;-1.10;99.90;;;;;;5025385;28;20033;-80
2024/01/07 10:44:30;;;;;;;8.23;5.22;;;-1.10;99.90;;;;;;5028977;28;20409;-81
2024/01/07 10:46:56;;;;;;;5.78;4.47;;;-1.10;99.90;;;;;;5025162;28;20482;-80
2024/01/07 10:49:24;;;;;;;5.95;3.90;;;-1.10;99.90;;;;;;5028983;28;20021;-80
2024/01/07 10:51:56;;;;;;;12.20;5.50;;;-1.10;99.90;;;;;;5028589;28;20030;-79
2024/01/07 10:54:28;;;;;;;6.30;4.65;;;-1.10;99.90;;;;;;5028412;28;20049;-80
2024/01/07 10:56:58;;;;;;;7.10;4.95;;;-1.10;99.90;;;;;;5024861;28;20060;-88
2024/01/07 10:59:25;;;;;;;8.23;4.97;;;-1.00;99.90;;;;;;5026566;28;20109;-81
2024/01/07 11:01:51;;;;;;;7.43;4.57;;;-1.00;99.90;;;;;;5030656;28;20026;-80
2024/01/07 11:04:45;;;;;;;7.38;4.45;;;-1.00;99.90;;;;;;5028612;28;20037;-80
2024/01/07 11:07:34;;;;;;;9.23;4.65;;;-1.00;99.90;;;;;;5023913;28;20036;-82
2024/01/07 11:10:20;;;;;;;9.70;4.93;;;-1.00;99.90;;;;;;5026258;28;20045;-79
2024/01/07 11:12:58;;;;;;;8.25;5.10;;;-1.00;99.90;;;;;;5030978;28;21098;-79
2024/01/07 11:15:48;;;;;;;8.13;4.32;;;-1.00;99.90;;;;;;5015885;28;20034;-80
2024/01/07 11:18:20;;;;;;;9.02;5.47;;;-1.00;99.90;;;;;;5015952;28;20131;-80
2024/01/07 11:20:47;;;;;;;12.63;5.15;;;-1.00;99.90;;;;;;5022474;28;20049;-79
2024/01/07 11:23:43;;;;;;;7.38;4.50;;;-1.00;99.90;;;;;;5023126;28;20029;-80
2024/01/07 11:26:09;;;;;;;9.02;4.88;;;-1.00;99.90;;;;;;5025553;28;20037;-80
2024/01/07 11:28:52;;;;;;;6.63;4.60;;;-0.90;99.90;;;;;;5030450;28;20083;-79
2024/01/07 11:31:22;;;;;;;10.23;5.13;;;-0.90;99.90;;;;;;5026815;28;20043;-80
2024/01/07 11:33:49;;;;;;;5.72;4.32;;;-0.90;99.90;;;;;;5031226;28;20025;-82
2024/01/07 11:36:18;;;;;;;9.35;4.63;;;-0.90;99.90;;;;;;5025582;28;20037;-79
2024/01/07 11:38:48;;;;;;;8.07;4.78;;;-0.80;99.90;;;;;;5024167;28;20048;-79
2024/01/07 11:41:15;;;;;;;7.63;5.07;;;-0.80;99.90;;;;;;5015755;28;20321;-79
2024/01/07 11:43:58;;;;;;;9.70;5.07;;;-0.80;99.90;;;;;;5020519;28;20033;-80
2024/01/07 11:46:24;;;;;;;6.15;4.25;;;-0.90;99.90;;;;;;5019843;28;20041;-80
2024/01/07 11:48:52;;;;;;;12.48;5.57;;;-0.90;99.90;;;;;;5027642;28;20090;-80
2024/01/07 11:51:18;;;;;;;8.30;4.85;;;-0.90;99.90;;;;;;5020319;28;20644;-79
2024/01/07 11:53:47;;;;;;;10.10;5.05;;;-0.90;99.90;;;;;;5021651;28;20112;-80
2024/01/07 11:56:13;;;;;;;14.32;6.60;;;-0.90;99.90;;;;;;5023531;28;20314;-79
2024/01/07 11:58:40;;;;;;;7.43;5.32;;;-0.90;99.90;;;;;;5017477;28;20453;-80
2024/01/07 12:01:06;;;;;;;11.10;6.78;;;-0.90;99.90;;;;;;5024805;28;20069;-79
2024/01/07 12:03:31;;;;;;;8.82;5.68;;;-0.90;99.90;;;;;;5015885;28;20489;-79
2024/01/07 12:05:57;;;;;;;11.40;6.00;;;-0.90;99.90;;;;;;5024427;28;20045;-81
2024/01/07 12:08:23;;;;;;;7.78;5.53;;;-0.90;99.90;;;;;;5020147;28;20466;-79
2024/01/07 12:10:49;;;;;;;16.48;6.18;;;-0.90;99.90;;;;;;5022386;28;20057;-79
2024/01/07 12:13:15;;;;;;;10.70;6.15;;;-0.80;99.90;;;;;;5024649;28;20030;-80
2024/01/07 12:15:41;;;;;;;11.73;7.10;;;-0.90;99.90;;;;;;5018464;28;20025;-79
2024/01/07 12:18:07;;;;;;;9.90;6.18;;;-0.80;99.90;;;;;;5020268;28;20048;-81
2024/01/07 12:20:32;;;;;;;20.48;8.55;;;-0.80;99.90;;;;;;5021114;28;20021;-80
2024/01/07 12:23:08;;;;;;;14.32;7.20;;;-0.80;99.90;;;;;;5017032;28;20033;-80
2024/01/07 12:25:35;;;;;;;13.75;7.43;;;-0.80;99.90;;;;;;5020811;28;20036;-82
2024/01/07 12:28:01;;;;;;;14.82;8.05;;;-0.80;99.90;;;;;;5025250;28;20482;-79
2024/01/07 12:30:27;;;;;;;10.73;6.95;;;-0.90;99.90;;;;;;5022801;28;20049;-80
2024/01/07 12:32:54;;;;;;;22.00;10.35;;;-0.80;99.90;;;;;;5019787;28;20033;-80
2024/01/07 12:35:20;;;;;;;27.52;11.98;;;-0.90;99.90;;;;;;5020668;28;20029;-80